createdAt,value
2019-01-21T00:00:20.516Z,94.80
2019-01-21T00:02:49.882Z,95.00
2019-01-21T00:05:19.191Z,95.10
2019-01-21T00:07:48.533Z,95.50
2019-01-21T00:10:17.841Z,95.60
2019-01-21T00:12:47.187Z,95.40
2019-01-21T00:15:16.534Z,95.70
2019-01-21T00:17:45.817Z,95.70
2019-01-21T00:20:15.162Z,95.40
2019-01-21T00:22:44.469Z,95.20
2019-01-21T00:25:13.778Z,95.20
2019-01-21T00:27:43.107Z,95.60
2019-01-21T00:30:12.913Z,95.90
2019-01-21T00:32:42.250Z,95.70
2019-01-21T00:35:11.571Z,95.60
2019-01-21T00:37:40.866Z,95.60
2019-01-21T00:40:16.206Z,95.40
2019-01-21T00:42:45.512Z,95.40
2019-01-21T00:45:14.841Z,95.40
2019-01-21T00:47:44.148Z,95.50
2019-01-21T00:50:13.937Z,95.30
2019-01-21T00:52:43.246Z,95.60
2019-01-21T00:55:13.535Z,95.40
2019-01-21T00:57:42.847Z,95.30
2019-01-21T01:00:18.228Z,95.20
2019-01-21T01:02:47.520Z,94.90
2019-01-21T01:05:17.093Z,95.10
2019-01-21T01:07:46.398Z,95.20
2019-01-21T01:10:16.078Z,94.80
2019-01-21T01:12:45.416Z,94.70
2019-01-21T01:15:15.222Z,95.10
2019-01-21T01:17:44.529Z,94.90
2019-01-21T01:20:16.189Z,95.00
2019-01-21T01:22:45.479Z,95.10
2019-01-21T01:25:14.794Z,95.00
2019-01-21T01:27:44.137Z,95.00
2019-01-21T01:30:15.301Z,95.00
2019-01-21T01:32:44.713Z,95.10
2019-01-21T01:35:15.139Z,95.10
2019-01-21T01:37:44.643Z,95.00
2019-01-21T01:40:15.838Z,95.30
2019-01-21T01:42:46.370Z,94.80
2019-01-21T01:45:21.372Z,95.00
2019-01-21T01:47:54.538Z,95.10
2019-01-21T01:50:23.873Z,95.40
2019-01-21T01:52:53.206Z,95.60
2019-01-21T01:55:23.474Z,95.80
2019-01-21T01:57:53.527Z,96.30
2019-01-21T02:00:22.872Z,95.90
2019-01-21T02:02:52.205Z,95.60
2019-01-21T02:05:21.910Z,95.40
2019-01-21T02:07:51.345Z,95.30
2019-01-21T02:10:20.689Z,95.10
2019-01-21T02:12:50.186Z,95.00
2019-01-21T02:15:19.607Z,95.00
2019-01-21T02:17:52.176Z,95.00
2019-01-21T02:20:19.843Z,95.20
2019-01-21T02:22:51.430Z,95.40
2019-01-21T02:25:23.784Z,95.80
2019-01-21T02:28:12.704Z,95.60
2019-01-21T02:31:03.267Z,96.60
2019-01-21T02:34:09.503Z,97.00
2019-01-21T02:37:15.574Z,97.80
2019-01-21T02:39:50.873Z,97.50
2019-01-21T02:42:32.301Z,97.30
2019-01-21T02:45:19.830Z,97.10
2019-01-21T02:48:01.010Z,97.00
2019-01-21T02:50:50.356Z,97.20
2019-01-21T02:53:25.954Z,96.70
2019-01-21T02:56:13.787Z,96.10
2019-01-21T02:59:04.494Z,95.80
2019-01-21T03:01:59.697Z,95.60
2019-01-21T03:04:49.061Z,95.00
2019-01-21T03:07:33.641Z,95.20
2019-01-21T03:10:25.705Z,95.10
2019-01-21T03:13:03.965Z,95.10
2019-01-21T03:15:42.406Z,95.10
2019-01-21T03:18:34.665Z,94.90
2019-01-21T03:21:24.907Z,95.10
2019-01-21T03:24:30.739Z,95.10
2019-01-21T03:27:20.860Z,95.00
2019-01-21T03:30:02.554Z,94.80
2019-01-21T03:32:42.249Z,94.70
2019-01-21T03:35:32.770Z,95.30
2019-01-21T03:38:23.400Z,95.20
2019-01-21T03:41:02.145Z,95.10
2019-01-21T03:43:51.463Z,95.30
2019-01-21T03:46:42.175Z,95.50
2019-01-21T03:49:26.647Z,95.70
2019-01-21T03:52:26.036Z,95.70
2019-01-21T03:54:55.425Z,95.50
2019-01-21T03:57:28.025Z,95.80
2019-01-21T04:00:00.571Z,95.90
2019-01-21T04:02:33.165Z,95.80
2019-01-21T04:05:20.632Z,96.30
2019-01-21T04:07:59.082Z,96.90
2019-01-21T04:10:46.433Z,97.00
2019-01-21T04:13:31.033Z,97.10
2019-01-21T04:16:21.702Z,97.80
2019-01-21T04:19:02.828Z,97.20
2019-01-21T04:21:58.269Z,96.80
2019-01-21T04:24:33.484Z,96.20
2019-01-21T04:27:38.147Z,96.10
2019-01-21T04:30:31.956Z,96.30
2019-01-21T04:33:26.996Z,96.40
2019-01-21T04:36:14.536Z,96.40
2019-01-21T04:39:02.420Z,96.50
2019-01-21T04:41:44.194Z,96.60
2019-01-21T04:44:31.782Z,96.40
2019-01-21T04:47:09.205Z,96.50
2019-01-21T04:49:41.832Z,96.80
2019-01-21T04:52:32.527Z,97.00
2019-01-21T04:55:29.283Z,97.10
2019-01-21T04:58:10.770Z,97.10
2019-01-21T05:00:59.668Z,96.90
2019-01-21T05:03:54.965Z,96.90
2019-01-21T05:06:56.396Z,96.80
2019-01-21T05:09:34.785Z,96.70
2019-01-21T05:12:10.272Z,96.80
2019-01-21T05:15:11.805Z,96.70
2019-01-21T05:18:00.700Z,96.90
2019-01-21T05:20:51.301Z,97.00
2019-01-21T05:23:46.555Z,96.90
2019-01-21T05:26:36.595Z,96.90
2019-01-21T05:29:14.955Z,96.70
2019-01-21T05:32:05.432Z,96.70
2019-01-21T05:34:41.244Z,96.80
2019-01-21T05:37:28.694Z,96.90
2019-01-21T05:40:06.904Z,97.00
2019-01-21T05:43:02.016Z,97.50
2019-01-21T05:45:44.296Z,97.10
2019-01-21T05:48:28.382Z,96.90
2019-01-21T05:51:17.539Z,96.80
2019-01-21T05:54:05.063Z,96.80
2019-01-21T05:56:43.590Z,96.80
2019-01-21T05:59:38.778Z,96.70
2019-01-21T06:02:29.523Z,96.70
2019-01-21T06:05:29.662Z,96.50
2019-01-21T06:08:23.215Z,96.70
2019-01-21T06:10:55.855Z,96.40
2019-01-21T06:13:57.212Z,96.50
2019-01-21T06:16:46.343Z,97.10
2019-01-21T06:19:30.763Z,97.20
2019-01-21T06:22:12.429Z,97.20
2019-01-21T06:24:47.832Z,97.00
2019-01-21T06:27:29.265Z,96.80
2019-01-21T06:30:25.671Z,96.60
2019-01-21T06:32:58.278Z,96.30
2019-01-21T06:35:30.904Z,96.60
2019-01-21T06:38:09.311Z,96.60
2019-01-21T06:40:44.597Z,96.80
2019-01-21T06:43:20.053Z,96.40
2019-01-21T06:46:04.302Z,96.20
2019-01-21T06:48:53.372Z,96.30
2019-01-21T06:51:25.965Z,96.10
2019-01-21T06:54:01.226Z,96.10
2019-01-21T06:56:48.833Z,96.20
2019-01-21T06:59:33.702Z,96.60
2019-01-21T07:02:11.938Z,96.60
2019-01-21T07:05:06.780Z,96.50
2019-01-21T07:07:54.605Z,96.60
2019-01-21T07:10:27.201Z,96.30
2019-01-21T07:13:09.332Z,96.30
2019-01-21T07:15:59.749Z,95.90
2019-01-21T07:18:47.199Z,96.00
2019-01-21T07:21:43.812Z,95.80
2019-01-21T07:24:39.203Z,95.80
2019-01-21T07:27:11.784Z,95.70
2019-01-21T07:29:56.307Z,95.70
2019-01-21T07:32:37.713Z,95.70
2019-01-21T07:35:10.338Z,95.80
2019-01-21T07:37:45.999Z,95.80
2019-01-21T07:40:27.544Z,95.80
2019-01-21T07:43:27.606Z,95.70
2019-01-21T07:46:00.275Z,95.80
2019-01-21T07:48:49.744Z,95.40
2019-01-21T07:51:31.717Z,95.50
2019-01-21T07:54:34.935Z,95.90
2019-01-21T07:57:27.287Z,95.80
2019-01-21T08:00:11.092Z,95.70
2019-01-21T08:03:02.008Z,95.60
2019-01-21T08:05:46.370Z,95.60
2019-01-21T08:08:37.096Z,95.70
2019-01-21T08:11:24.302Z,95.60
2019-01-21T08:13:56.952Z,96.00
2019-01-21T08:16:47.570Z,96.00
2019-01-21T08:19:24.299Z,95.80
2019-01-21T08:22:00.399Z,95.30
2019-01-21T08:24:53.612Z,94.30
2019-01-21T08:27:31.759Z,93.90
2019-01-21T08:30:16.240Z,93.10
2019-01-21T08:32:54.751Z,93.20
2019-01-21T08:35:33.293Z,93.00
2019-01-21T08:38:21.090Z,92.00
2019-01-21T08:41:21.201Z,91.70
2019-01-21T08:43:56.419Z,91.10
2019-01-21T08:46:34.556Z,91.00
2019-01-21T08:49:21.940Z,90.90
2019-01-21T08:52:15.846Z,88.30
2019-01-21T08:55:00.551Z,86.90
2019-01-21T08:57:52.479Z,88.80
2019-01-21T09:00:43.292Z,88.00
2019-01-21T09:03:36.969Z,84.10
2019-01-21T09:06:18.275Z,82.00
2019-01-21T09:09:04.334Z,82.10
2019-01-21T09:11:40.033Z,78.90
2019-01-21T09:14:30.885Z,76.40
2019-01-21T09:17:20.929Z,76.10
2019-01-21T09:20:11.664Z,72.60
2019-01-21T09:22:58.610Z,71.80
2019-01-21T09:25:34.064Z,72.00
2019-01-21T09:28:15.366Z,70.00
2019-01-21T09:30:53.820Z,69.20
2019-01-21T09:33:37.753Z,69.40
2019-01-21T09:36:30.398Z,69.10
2019-01-21T09:39:20.689Z,67.60
2019-01-21T09:42:08.031Z,67.30
2019-01-21T09:44:45.965Z,67.50
2019-01-21T09:47:14.374Z,66.00
2019-01-21T09:49:43.991Z,64.80
2019-01-21T09:52:14.724Z,64.70
2019-01-21T09:54:44.183Z,63.50
2019-01-21T09:57:16.625Z,63.50
2019-01-21T09:59:46.985Z,62.80
2019-01-21T10:02:16.469Z,62.10
2019-01-21T10:04:46.103Z,60.30
2019-01-21T10:07:21.359Z,60.10
2019-01-21T10:09:59.738Z,61.10
2019-01-21T10:12:53.819Z,59.10
2019-01-21T10:15:35.044Z,59.50
2019-01-21T10:18:10.638Z,59.50
2019-01-21T10:20:43.259Z,59.40
2019-01-21T10:23:21.923Z,61.10
2019-01-21T10:26:03.514Z,59.00
2019-01-21T10:28:45.069Z,60.40
2019-01-21T10:31:20.398Z,60.90
2019-01-21T10:34:17.191Z,59.10
2019-01-21T10:36:52.536Z,57.50
2019-01-21T10:39:25.104Z,59.90
2019-01-21T10:42:16.099Z,60.00
2019-01-21T10:45:12.941Z,57.30
2019-01-21T10:47:45.503Z,57.90
2019-01-21T10:50:21.217Z,57.10
2019-01-21T10:53:12.173Z,58.10
